WETTERDATEN

HEUTE
Time Temp. Taup. r.Fe. Windrich Windstärke Windböe Druck 1h Prec. 24h Prec.
00:00 7.8 4.6 80 270 0.3 1.4 1006.1 0.3030 0.0000
00:10 7.8 4.6 80 270 0.3 1.4 1006.2 0.2020 0.0000
00:20 7.8 4.6 80 270 0.8 1.9 1006.4 0.1010 0.0000
00:30 7.7 4.5 80 270 0.3 1.4 1006.6 0.1010 0.0000
00:40 7.7 4.5 80 259 0.8 1.9 1006.7 0.1010 0.0000
00:50 7.6 4.2 79 270 0.3 1.4 1006.9 0.0000 0.0000
01:00 7.5 4.1 79 270 0.3 1.9 1006.9 0.0000 0.0000
01:11 7.5 4.1 79 270 0.3 1.4 1007 0.0000 0.0000
01:21 7.5 3.9 78 270 0.3 1.9 1007.1 0.0000 0.0000
01:30 7.4 3.8 78 270 0.3 1.4 1007.3 0.0000 0.0000
01:40 7.4 3.8 78 270 0.3 1.4 1007.5 0.0000 0.0000
01:51 7.4 3.6 77 270 0.3 1.4 1007.4 0.0000 0.0000
02:01 7.3 3.5 77 270 0.3 1.1 1007.6 0.0000 0.0000
02:11 7.3 3.5 77 270 0.3 1.4 1007.6 0.0000 0.0000
02:21 7.2 3.4 77 270 0.3 1.4 1007.6 0.0000 0.0000
02:31 7.1 3.2 76 270 0.8 1.9 1007.9 0.0000 0.0000
02:41 7 3.1 76 270 0.3 1.4 1008 0.0000 0.0000
02:51 7 3.1 76 270 0.3 1.1 1008.1 0.0000 0.0000
02:57 6.9 3 76 270 0.3 1.4 1008.1 0.0000 0.0000
03:07 6.8 2.9 76 270 0.3 1.9 1008 0.0000 0.0000
03:17 6.7 2.8 76 270 0.3 1.4 1008.2 0.0000 0.0000
03:27 6.6 2.7 76 270 0.8 1.4 1008.4 0.0000 0.0000
03:37 6.5 2.6 76 270 0.3 1.4 1008.3 0.0000 0.0000
03:48 6.5 2.6 76 270 0.3 2.2 1008.4 0.0000 0.0000
03:57 6.5 2.6 76 270 0.3 1.4 1008.5 0.0000 0.0000
04:07 6.4 2.5 76 270 0.3 1.4 1008.5 0.0000 0.0000
04:18 6.4 2.5 76 270 0.3 1.4 1008.6 0.0000 0.0000
04:28 6.4 2.5 76 270 0.3 1.4 1008.8 0.0000 0.0000
04:38 6.4 2.5 76 270 0.3 1.4 1009 0.0000 0.0000
04:48 6.4 2.5 76 270 0.3 1.4 1009.1 0.0000 0.0000
04:58 6.4 2.5 76 270 0.3 1.1 1009.1 0.0000 0.0000
05:08 6.4 2.5 76 270 0.3 1.4 1009.1 0.0000 0.0000
05:18 6.3 2.4 76 270 0.3 1.1 1009 0.0000 0.0000
05:29 6.3 2.2 75 270 0.3 1.1 1009.5 0.0000 0.0000
05:38 6.3 2.4 76 270 0.3 1.4 1009.4 0.0000 0.0000
05:48 6.3 2.4 76 270 0.3 1.1 1009.5 0.0000 0.0000
05:58 6.3 2.4 76 270 0.3 1.1 1009.7 0.0000 0.0000
06:09 6.3 2.2 75 270 0.3 1.4 1009.7 0.0000 0.0000
06:19 6.3 2.2 75 270 0.3 1.1 1009.8 0.0000 0.0000
06:28 6.2 2.1 75 270 0.3 1.1 1009.9 0.0000 0.0000
06:39 6.2 2.1 75 270 0.3 1.1 1010 0.0000 0.0000
06:49 6.2 2.1 75 270 0.3 1.4 1010 0.0000 0.0000
06:59 6.2 2.3 76 270 0.3 1.4 1010.3 0.0000 0.0000
07:09 6.3 2.4 76 270 0.3 1.1 1010.5 0.0000 0.0000
07:19 6.4 2.3 75 270 0.3 1.1 1010.5 0.0000 0.0000
07:29 6.5 2.6 76 270 0.3 1.1 1010.6 0.0000 0.0000
07:39 6.5 2.4 75 270 0.3 1.1 1010.8 0.0000 0.0000
07:50 6.6 2.5 75 270 0.3 1.4 1010.8 0.0000 0.0000
07:54 6.6 2.5 75 270 0.3 1.4 1011 0.0000 0.0000
08:04 6.6 2.5 75 270 0.3 1.9 1011.1 0.0000 0.0000
08:14 6.6 2.5 75 270 0.3 1.4 1011.1 0.0000 0.0000
08:24 6.7 2.6 75 270 0.3 1.4 1011.1 0.0000 0.0000
08:34 6.7 2.6 75 270 0.3 1.4 1011.3 0.1010 0.1000
08:44 6.7 2.6 75 270 0.3 1.4 1011.2 0.1010 0.1000
08:54 6.7 2.6 75 270 0.3 1.4 1011.2 0.3030 0.3000
09:05 6.7 2.6 75 270 0.3 1.4 1011.4 0.5050 0.5000
09:15 6.7 2.8 76 270 0.3 1.1 1011.5 0.6060 0.6000
09:25 6.7 2.8 76 270 0.3 1.4 1011.6 0.9090 0.9000
09:35 6.7 2.8 76 270 0.3 1.1 1011.7 1.2120 1.3000
09:45 6.7 2.8 76 270 0.3 1.1 1011.8 1.3130 1.5000
09:55 6.7 2.8 76 270 0.3 1.4 1011.7 1.2120 1.6000
10:05 6.7 2.8 76 270 0.3 1.1 1011.8 1.1110 1.7000
10:16 6.7 2.8 76 270 0.3 1.4 1011.9 1.1110 1.8000
10:26 6.7 2.8 76 270 0.3 1.4 1012.1 0.7070 1.8000
10:35 6.7 2.8 76 270 0.3 1.4 1012.2 0.4040 1.8000
10:45 6.8 2.9 76 282 0.8 1.4 1012.3 0.3030 1.9000
10:56 6.8 3.1 77 306 0.3 1.1 1012.4 0.3030 1.9000
11:06 6.9 3.2 77 303 0.3 1.1 1012.4 0.2020 1.9000
11:16 6.9 3.2 77 270 0.3 1.4 1012.4 0.1010 1.9000
11:26 6.9 3.2 77 270 0.3 1.1 1012.5 0.2020 2.0000
11:36 6.9 3.2 77 270 0.3 1.4 1012.6 0.1010 2.0000
11:46 6.9 3.2 77 315 0.3 1.9 1012.6 0.2020 2.1000
11:56 7 3.2 77 270 0.3 1.4 1012.5 0.2020 2.1000
12:07 7 3.2 77 270 0.3 1.4 1012.7 0.2020 2.1000
12:16 7 3.2 77 270 0.3 1.1 1012.7 0.1010 2.1000
12:26 7.1 3.3 77 270 0.3 1.1 1012.7 0.1010 2.1000
12:37 7.1 3.3 77 270 0.3 1.1 1012.7 0.1010 2.1000
12:47 7.2 3.4 77 270 0.3 1.1 1012.8 0.0000 2.1000
12:57 7.3 3.5 77 270 0.3 1.1 1012.9 0.0000 2.1000
13:07 7.3 3.5 77 270 0.3 1.9 1012.9 0.0000 2.1000
13:17 7.4 3.6 77 270 0.3 1.4 1012.9 0.0000 2.1000
13:27 7.5 3.5 76 270 0.3 1.4 1012.8 0.0000 2.1000
13:37 7.6 3.6 76 270 0.3 1.1 1012.9 0.0000 2.1000
13:47 7.7 3.7 76 270 0.3 1.1 1012.9 0.0000 2.1000
13:58 7.7 3.7 76 270 0.3 1.1 1012.9 0.0000 2.1000
14:07 7.8 3.8 76 270 0.3 1.4 1012.9 0.0000 2.1000
14:17 7.8 3.7 75 270 0.3 1.1 1012.8 0.0000 2.1000
14:28 7.9 3.7 75 270 0.3 1.1 1013.1 0.0000 2.1000
14:38 7.9 3.7 75 270 0.3 0.8 1013.2 0.0000 2.1000
14:48 7.9 3.7 75 270 0.3 1.4 1013.3 0.0000 2.1000
14:58 7.9 3.7 75 270 0.3 1.1 1013.4 0.0000 2.1000
15:08 7.9 3.7 75 270 0.3 1.1 1013.3 0.0000 2.1000
15:18 7.9 3.7 75 270 0.3 1.1 1013.5 0.0000 2.1000
15:28 7.9 3.7 75 270 0.3 0.8 1013.3 0.0000 2.1000
15:39 7.9 3.7 75 270 0.3 0.8 1013.4 0.0000 2.1000
15:48 7.9 3.7 75 270 0.3 1.1 1013.3 0.0000 2.1000
15:58 7.8 3.7 75 270 0.3 1.1 1013.4 0.0000 2.1000
16:08 7.7 3.6 75 270 0.3 1.1 1013.3 0.0000 2.1000
16:19 7.6 3.5 75 270 0.3 1.1 1013.3 0.0000 2.1000
16:29 7.5 3.4 75 270 0.3 0.8 1013.4 0.0000 2.1000
16:39 7.4 3.3 75 270 0.3 1.1 1013.4 0.0000 2.1000
16:49 7.3 3.2 75 270 0.3 1.1 1013.4 0.0000 2.1000
16:59 7.2 3.1 75 270 0.3 1.1 1013.4 0.0000 2.1000
17:09 7.1 3 75 270 0.3 1.1 1013.5 0.0000 2.1000
17:19 7 2.9 75 270 0.3 1.1 1013.6 0.0000 2.1000
17:30 6.8 2.7 75 270 0.3 1.1 1013.8 0.0000 2.1000
17:39 6.8 2.7 75 270 0.3 1.1 1013.9 0.0000 2.1000
17:49 6.7 2.6 75 270 0.3 1.4 1013.9 0.0000 2.1000
18:00 6.7 2.8 76 270 0.3 1.1 1014 0.0000 2.1000
18:10 6.6 2.7 76 270 0.3 1.1 1013.9 0.0000 2.1000
18:20 6.6 2.7 76 270 0.3 1.1 1014.1 0.0000 2.1000
18:30 6.6 2.7 76 270 0.3 1.4 1014.1 0.0000 2.1000
18:40 6.6 2.7 76 270 0.3 1.1 1014 0.0000 2.1000
18:50 6.7 2.8 76 270 0.3 1.1 1014.2 0.0000 2.1000
19:00 6.6 2.7 76 270 0.3 1.1 1014.3 0.0000 2.1000
19:06 6.6 2.5 75 270 0.3 1.1 1014.2 0.0000 2.1000
19:16 6.6 2.5 75 270 0.3 1.1 1014.3 0.0000 2.1000
19:26 6.5 2.4 75 270 0.3 1.1 1014.4 0.0000 2.1000
19:36 6.4 2.3 75 270 0.3 1.1 1014.5 0.0000 2.1000
19:46 6.3 2.2 75 270 0.3 1.1 1014.4 0.0000 2.1000
19:57 6.4 2.3 75 270 0.3 1.1 1014.6 0.0000 2.1000
20:07 6.4 2.3 75 270 0.3 1.1 1014.6 0.0000 2.1000
20:16 6.4 2.3 75 270 0.3 1.4 1014.6 0.0000 2.1000
20:26 6.4 2.3 75 270 0.3 1.1 1014.8 0.0000 2.1000
20:37 6.4 2.5 76 270 0.3 0.8 1014.6 0.0000 2.1000
20:47 6.5 2.6 76 270 0.3 1.1 1014.8 0.0000 2.1000
20:57 6.5 2.6 76 270 0.3 1.1 1014.9 0.0000 2.1000
21:07 6.5 2.6 76 270 0.3 1.1 1015 0.0000 2.1000
21:17 6.5 2.6 76 270 0.3 1.1 1015 0.0000 2.1000
21:27 6.4 2.5 76 270 0.3 1.1 1015 0.0000 2.1000
21:37 6.3 2.4 76 270 0.3 1.4 1015 0.0000 2.1000
21:48 6.2 2.3 76 270 0.3 0.8 1015 0.0000 2.1000
21:58 6.2 2.3 76 270 0.3 1.1 1015.1 0.0000 2.1000
22:07 6.1 2.2 76 270 0.3 1.1 1015 0.0000 2.1000
22:18 6.1 2.2 76 270 0.3 1.1 1015.2 0.0000 2.1000
22:28 6.1 2.2 76 270 0.3 1.1 1015.3 0.0000 2.1000
22:38 6 2.1 76 270 0.3 1.1 1015.3 0.0000 2.1000
22:48 5.9 2 76 270 0.3 1.1 1015.2 0.0000 2.1000
22:58 5.8 1.9 76 270 0.3 1.1 1015.1 0.0000 2.1000
23:08 5.8 1.9 76 270 0.3 1.1 1015.2 0.0000 2.1000
23:18 5.7 1.8 76 270 0.3 1.1 1015.2 0.0000 2.1000

TAGESSTATISTIK

2019-11-19
TEMPERATUR
MITTEL
6.9
MAXIMUM
7.9
14:28
MINIMUM
5.7
23:18
LUFTDRUCK
MITTEL
1011.7
MAXIMUM
1015.3
22:28
MINIMUM
1006.1
00:00
TAUPUNKT
MITTEL
2.9
MAXIMUM
4.6
00:00
MINIMUM
1.8
23:18
FEUCHTIGKEIT
MITTEL
76
MAXIMUM
80
00:00
MINIMUM
75
05:29
WINDSTÄRKE
MITTEL
0.3
MAXIMUM
0.8
00:20
WINDBÖE
MITTEL
1.3
MAXIMUM
2.2
03:48
WINDRICHTUNG
VORHERRSCHENDE
W
97.9%
N
0.0
NO
0.0
O
0.0
SO
0.0
S
0.0
SW
0.0
W
97.9
NW
2.1
NIEDERSCHLAG
REGEN STUNDE
1.3
REGEN TAG
2.1
TEMPERATUR (°C)
MINIMUM
5.7
MAXIMUM
7.9
MITTEL
6.9
LUFTDRUCK (hpa)
MINIMUM
1006.1
MAXIMUM
1015.3
MITTEL
1011.7
MESSGERÄT